Time;durP1;ratioP1;P1;durP2;ratioP2;P2;SDS_P1;SDS_P2;PMS_P1;PMS_P2;Temp;Humidity;BMP_temperature;BMP_pressure;BME280_temperature;BME280_humidity;BME280_pressure;Samples;Min_cycle;Max_cycle;Signal;HPM_P1;HPM_P2
2021/05/28 00:00:50;;;;;;;3.35;1.30;;;;;;;;;;5153479;27;20061;-62
2021/05/28 00:03:16;;;;;;;3.33;0.98;;;;;;;;;;5153406;27;20022;-62
2021/05/28 00:05:42;;;;;;;3.10;1.42;;;;;;;;;;5148883;27;20023;-62
2021/05/28 00:08:08;;;;;;;3.15;1.08;;;;;;;;;;5132737;27;20102;-62
2021/05/28 00:10:34;;;;;;;2.67;1.10;;;;;;;;;;5132652;27;20378;-62
2021/05/28 00:13:00;;;;;;;1.83;0.82;;;;;;;;;;5132783;27;20023;-62
2021/05/28 00:15:26;;;;;;;3.60;1.10;;;;;;;;;;5132648;27;20501;-62
2021/05/28 00:17:52;;;;;;;3.15;0.80;;;;;;;;;;5132780;27;20016;-62
2021/05/28 00:20:18;;;;;;;2.97;1.00;;;;;;;;;;5132570;27;20023;-62
2021/05/28 00:22:44;;;;;;;3.10;1.25;;;;;;;;;;5132138;27;20027;-62
2021/05/28 00:25:11;;;;;;;3.28;1.08;;;;;;;;;;5132534;27;20050;-62
2021/05/28 00:27:37;;;;;;;4.43;1.20;;;;;;;;;;5114025;27;20110;-62
2021/05/28 00:30:04;;;;;;;2.42;1.15;;;;;;;;;;5132107;27;20511;-62
2021/05/28 00:32:30;;;;;;;2.58;1.00;;;;;;;;;;5132180;27;20023;-62
2021/05/28 00:34:56;;;;;;;1.85;0.90;;;;;;;;;;5131941;27;20047;-62
2021/05/28 00:37:22;;;;;;;3.60;1.00;;;;;;;;;;5132293;27;20027;-63
2021/05/28 00:39:49;;;;;;;2.03;0.82;;;;;;;;;;5132307;27;20023;-62
2021/05/28 00:42:15;;;;;;;3.28;1.00;;;;;;;;;;5132236;27;20050;-62
2021/05/28 00:44:41;;;;;;;1.73;0.80;;;;;;;;;;5113962;28;20027;-62
2021/05/28 00:47:07;;;;;;;1.88;0.93;;;;;;;;;;5132138;28;20027;-63
2021/05/28 00:49:34;;;;;;;5.50;1.20;;;;;;;;;;5132281;28;20108;-62
2021/05/28 00:52:00;;;;;;;3.95;0.82;;;;;;;;;;5132057;28;20012;-62
2021/05/28 00:54:27;;;;;;;4.03;0.95;;;;;;;;;;5131967;28;20023;-62
2021/05/28 00:56:53;;;;;;;7.10;1.13;;;;;;;;;;5132105;28;20027;-62
2021/05/28 00:59:20;;;;;;;3.92;1.10;;;;;;;;;;5132069;28;20020;-62
2021/05/28 01:01:49;;;;;;;3.13;1.00;;;;;;;;;;5132028;28;20034;-62
2021/05/28 01:04:15;;;;;;;2.20;0.90;;;;;;;;;;5131901;28;20023;-62
2021/05/28 01:06:41;;;;;;;1.80;0.90;;;;;;;;;;5131617;27;20034;-62
2021/05/28 01:09:08;;;;;;;2.70;0.90;;;;;;;;;;5146411;27;20050;-62
2021/05/28 01:11:34;;;;;;;1.55;0.77;;;;;;;;;;5152702;27;20026;-62
2021/05/28 01:14:01;;;;;;;1.85;0.90;;;;;;;;;;5152664;27;20385;-62
2021/05/28 01:16:27;;;;;;;3.28;0.95;;;;;;;;;;5152481;27;20037;-62
2021/05/28 01:18:53;;;;;;;2.47;1.00;;;;;;;;;;5150656;27;20070;-62
2021/05/28 01:21:20;;;;;;;3.58;1.10;;;;;;;;;;5152577;27;20098;-62
2021/05/28 01:23:46;;;;;;;2.25;0.98;;;;;;;;;;5152658;27;20026;-62
2021/05/28 01:26:12;;;;;;;3.95;1.05;;;;;;;;;;5152524;27;20026;-62
2021/05/28 01:28:39;;;;;;;2.00;0.90;;;;;;;;;;5152751;27;20027;-62
2021/05/28 01:31:05;;;;;;;1.50;0.90;;;;;;;;;;5152392;27;20085;-63
2021/05/28 01:33:32;;;;;;;3.80;1.08;;;;;;;;;;5153443;27;20484;-62
2021/05/28 01:35:59;;;;;;;2.50;1.00;;;;;;;;;;5156179;27;20050;-61
2021/05/28 01:38:25;;;;;;;2.20;1.10;;;;;;;;;;5156632;27;20110;-62
2021/05/28 01:40:52;;;;;;;4.32;1.27;;;;;;;;;;5156359;27;20095;-62
2021/05/28 01:43:18;;;;;;;2.00;0.98;;;;;;;;;;5156631;27;20534;-62
2021/05/28 01:45:44;;;;;;;2.75;0.93;;;;;;;;;;5137747;27;20031;-62
2021/05/28 01:48:10;;;;;;;1.80;0.90;;;;;;;;;;5156266;27;20063;-62
2021/05/28 01:50:45;;;;;;;2.65;1.20;;;;;;;;;;5156277;27;20029;-62
2021/05/28 01:53:13;;;;;;;1.92;0.88;;;;;;;;;;5156074;27;20079;-62
2021/05/28 01:55:39;;;;;;;2.03;0.90;;;;;;;;;;5156034;27;20055;-62
2021/05/28 01:58:09;;;;;;;2.92;1.10;;;;;;;;;;5155991;27;20084;-62
2021/05/28 02:00:36;;;;;;;2.30;1.08;;;;;;;;;;5155834;27;20031;-62
2021/05/28 02:03:02;;;;;;;1.85;0.98;;;;;;;;;;5155848;27;20023;-62
2021/05/28 02:05:28;;;;;;;2.72;1.20;;;;;;;;;;5153312;27;20063;-62
2021/05/28 02:07:54;;;;;;;1.80;0.90;;;;;;;;;;5135034;27;20098;-62
2021/05/28 02:10:20;;;;;;;2.83;1.00;;;;;;;;;;5116404;27;20084;-62
2021/05/28 02:12:46;;;;;;;3.33;1.20;;;;;;;;;;5134939;27;20075;-62
2021/05/28 02:15:13;;;;;;;2.35;1.10;;;;;;;;;;5134787;27;20027;-62
2021/05/28 02:17:39;;;;;;;2.13;1.00;;;;;;;;;;5134935;27;20106;-62
2021/05/28 02:20:05;;;;;;;3.03;1.00;;;;;;;;;;5134771;27;20020;-62
2021/05/28 02:22:31;;;;;;;2.45;1.00;;;;;;;;;;5135012;27;20102;-62
2021/05/28 02:24:57;;;;;;;2.20;1.10;;;;;;;;;;5134888;27;20511;-62
2021/05/28 02:27:23;;;;;;;2.58;1.17;;;;;;;;;;5134823;27;20486;-62
2021/05/28 02:29:49;;;;;;;2.95;1.00;;;;;;;;;;5134775;27;20050;-62
2021/05/28 02:32:15;;;;;;;2.83;1.00;;;;;;;;;;5134618;27;20477;-63
2021/05/28 02:34:42;;;;;;;2.47;0.93;;;;;;;;;;5134484;27;20482;-63
2021/05/28 02:37:08;;;;;;;1.98;1.10;;;;;;;;;;5134716;27;20373;-62
2021/05/28 02:39:34;;;;;;;3.88;1.08;;;;;;;;;;5134472;27;20020;-62
2021/05/28 02:42:00;;;;;;;1.65;0.82;;;;;;;;;;5116019;27;20027;-62
2021/05/28 02:44:26;;;;;;;3.08;1.30;;;;;;;;;;5133756;27;20027;-62
2021/05/28 02:46:52;;;;;;;3.95;1.30;;;;;;;;;;5134258;27;20027;-62
2021/05/28 02:49:18;;;;;;;2.92;1.10;;;;;;;;;;5134234;27;20023;-63
2021/05/28 02:51:44;;;;;;;4.55;1.05;;;;;;;;;;5134236;27;20023;-62
2021/05/28 02:54:10;;;;;;;3.28;1.10;;;;;;;;;;5134186;27;20099;-62
2021/05/28 02:56:36;;;;;;;5.22;1.48;;;;;;;;;;5134240;27;20035;-62
2021/05/28 02:59:02;;;;;;;3.65;0.90;;;;;;;;;;5134269;27;20019;-62
2021/05/28 03:01:28;;;;;;;4.00;1.00;;;;;;;;;;5133956;27;20051;-62
2021/05/28 03:03:54;;;;;;;3.58;1.00;;;;;;;;;;5133965;27;20030;-62
2021/05/28 03:06:21;;;;;;;3.72;0.90;;;;;;;;;;5133608;27;20023;-62
2021/05/28 03:08:47;;;;;;;3.10;0.90;;;;;;;;;;5133870;27;20027;-62
2021/05/28 03:11:13;;;;;;;3.35;1.15;;;;;;;;;;5133850;27;20023;-62
2021/05/28 03:13:40;;;;;;;4.63;1.15;;;;;;;;;;5115522;27;20075;-62
2021/05/28 03:16:06;;;;;;;3.15;1.45;;;;;;;;;;5133822;27;20363;-62
2021/05/28 03:23:57;;;;;;;3.28;1.13;;;;;;;;;;5133569;27;20029;-62
2021/05/28 03:26:23;;;;;;;2.97;1.20;;;;;;;;;;5115272;27;20035;-62
2021/05/28 03:28:49;;;;;;;2.33;1.23;;;;;;;;;;5133679;27;20015;-62
2021/05/28 03:31:15;;;;;;;2.35;1.08;;;;;;;;;;5133565;27;20052;-62
2021/05/28 03:33:41;;;;;;;3.72;1.20;;;;;;;;;;5133584;27;20051;-62
2021/05/28 03:36:08;;;;;;;5.32;1.42;;;;;;;;;;5133013;27;20075;-62
2021/05/28 03:38:34;;;;;;;3.70;1.30;;;;;;;;;;5133296;27;20044;-63
2021/05/28 03:41:00;;;;;;;3.58;1.20;;;;;;;;;;5133305;27;20023;-62
2021/05/28 03:43:27;;;;;;;2.38;1.10;;;;;;;;;;5133324;27;20080;-62
2021/05/28 03:45:53;;;;;;;3.70;1.33;;;;;;;;;;5133108;27;20066;-62
2021/05/28 03:48:19;;;;;;;3.97;1.35;;;;;;;;;;5132903;27;20035;-62
2021/05/28 03:50:45;;;;;;;2.63;1.15;;;;;;;;;;5114797;27;20431;-62
2021/05/28 03:53:11;;;;;;;5.55;1.15;;;;;;;;;;5114552;27;20381;-62
2021/05/28 03:55:37;;;;;;;2.40;1.25;;;;;;;;;;5140435;27;20035;-60
2021/05/28 03:58:03;;;;;;;2.67;1.10;;;;;;;;;;5153452;27;20019;-62
2021/05/28 04:00:30;;;;;;;2.78;1.10;;;;;;;;;;5153530;27;20026;-62
2021/05/28 04:02:56;;;;;;;4.00;1.30;;;;;;;;;;5153562;27;20027;-62
2021/05/28 04:05:22;;;;;;;3.38;1.25;;;;;;;;;;5151303;27;20791;-62
2021/05/28 04:07:48;;;;;;;2.15;1.02;;;;;;;;;;5132512;27;20516;-62
2021/05/28 04:10:14;;;;;;;4.18;1.40;;;;;;;;;;5132583;27;20103;-62
2021/05/28 04:12:41;;;;;;;4.90;1.40;;;;;;;;;;5132435;27;20021;-62
2021/05/28 04:15:07;;;;;;;4.30;1.00;;;;;;;;;;5132487;27;20079;-62
2021/05/28 04:17:33;;;;;;;3.17;1.20;;;;;;;;;;5131990;27;20102;-62
2021/05/28 04:19:59;;;;;;;2.60;1.10;;;;;;;;;;5132561;27;20027;-62
2021/05/28 04:22:26;;;;;;;3.92;1.17;;;;;;;;;;5132437;27;20057;-62
2021/05/28 04:24:52;;;;;;;2.85;1.10;;;;;;;;;;5132675;27;20454;-62
2021/05/28 04:27:18;;;;;;;2.65;1.10;;;;;;;;;;5132602;27;20027;-62
2021/05/28 04:29:44;;;;;;;2.60;1.00;;;;;;;;;;5132378;27;20054;-62
2021/05/28 04:32:10;;;;;;;3.70;1.20;;;;;;;;;;5132360;27;20023;-62
2021/05/28 04:34:37;;;;;;;3.88;1.23;;;;;;;;;;5132207;27;20527;-62
2021/05/28 04:37:04;;;;;;;3.95;1.25;;;;;;;;;;5132142;27;20583;-63
2021/05/28 04:39:30;;;;;;;3.30;1.20;;;;;;;;;;5133079;27;20477;-63
2021/05/28 04:41:56;;;;;;;2.95;1.20;;;;;;;;;;5113878;28;20019;-62
2021/05/28 04:44:22;;;;;;;11.23;1.58;;;;;;;;;;5132133;27;20102;-62
2021/05/28 04:46:48;;;;;;;6.43;1.48;;;;;;;;;;5145159;27;20022;-62
2021/05/28 04:49:14;;;;;;;5.53;1.17;;;;;;;;;;5134351;27;20489;-62
2021/05/28 04:51:40;;;;;;;7.65;1.40;;;;;;;;;;5152917;27;20027;-63
2021/05/28 04:54:07;;;;;;;4.88;1.30;;;;;;;;;;5152812;27;20079;-63
2021/05/28 04:56:33;;;;;;;3.40;1.30;;;;;;;;;;5153025;27;20489;-62
2021/05/28 04:58:59;;;;;;;11.23;1.23;;;;;;;;;;5153004;27;20025;-62
2021/05/28 05:01:25;;;;;;;3.60;1.00;;;;;;;;;;5152753;27;20025;-62
2021/05/28 05:03:52;;;;;;;6.43;1.35;;;;;;;;;;5152427;27;20110;-62
2021/05/28 05:06:18;;;;;;;4.05;1.45;;;;;;;;;;5152286;27;20055;-62
2021/05/28 05:08:44;;;;;;;4.07;1.30;;;;;;;;;;5156091;27;20019;-63
2021/05/28 05:11:11;;;;;;;5.20;1.30;;;;;;;;;;5156890;27;20098;-62
2021/05/28 05:13:37;;;;;;;6.60;1.30;;;;;;;;;;5156809;27;20179;-61
2021/05/28 05:16:03;;;;;;;10.23;1.50;;;;;;;;;;5156479;27;20026;-62
2021/05/28 05:18:30;;;;;;;11.43;1.73;;;;;;;;;;5156620;27;20019;-61
2021/05/28 05:20:56;;;;;;;15.07;2.03;;;;;;;;;;5137925;27;20053;-62
2021/05/28 05:23:22;;;;;;;12.45;1.70;;;;;;;;;;5156651;27;20019;-62
2021/05/28 05:25:48;;;;;;;11.52;2.00;;;;;;;;;;5154398;27;20547;-62
2021/05/28 05:28:14;;;;;;;10.90;1.55;;;;;;;;;;5154658;27;20050;-62
2021/05/28 05:30:40;;;;;;;6.65;1.50;;;;;;;;;;5154570;27;20036;-62
2021/05/28 05:33:07;;;;;;;5.97;1.60;;;;;;;;;;5154696;27;20101;-62
2021/05/28 05:35:33;;;;;;;9.93;1.88;;;;;;;;;;5154541;27;20063;-62
2021/05/28 05:37:59;;;;;;;6.30;1.35;;;;;;;;;;5155503;27;20092;-62
2021/05/28 05:40:25;;;;;;;9.18;1.55;;;;;;;;;;5155999;27;20022;-60
2021/05/28 05:42:52;;;;;;;11.60;1.30;;;;;;;;;;5156369;27;20033;-61
2021/05/28 05:45:18;;;;;;;4.03;1.50;;;;;;;;;;5137627;27;20026;-62
2021/05/28 05:47:44;;;;;;;6.38;1.55;;;;;;;;;;5156232;27;20064;-62
2021/05/28 05:50:11;;;;;;;5.47;1.45;;;;;;;;;;5155994;27;20025;-61
2021/05/28 05:52:38;;;;;;;8.20;1.80;;;;;;;;;;5156192;27;20027;-62
2021/05/28 05:55:04;;;;;;;3.42;1.40;;;;;;;;;;5156081;27;20034;-61
2021/05/28 05:57:31;;;;;;;4.38;1.10;;;;;;;;;;5156073;27;20027;-62
2021/05/28 05:59:57;;;;;;;4.50;1.25;;;;;;;;;;5155996;27;20046;-62
2021/05/28 06:02:23;;;;;;;3.30;1.23;;;;;;;;;;5155879;27;20083;-62
2021/05/28 06:04:49;;;;;;;4.38;1.33;;;;;;;;;;5155684;27;20105;-62
2021/05/28 06:07:15;;;;;;;3.90;1.25;;;;;;;;;;5137665;27;20020;-62
2021/05/28 06:09:41;;;;;;;5.57;1.20;;;;;;;;;;5116586;27;20485;-62
2021/05/28 06:12:08;;;;;;;3.95;1.25;;;;;;;;;;5134697;27;20019;-62
2021/05/28 06:14:34;;;;;;;3.30;1.20;;;;;;;;;;5134586;27;20017;-61
2021/05/28 06:17:00;;;;;;;4.30;1.23;;;;;;;;;;5134714;27;20034;-62
2021/05/28 06:19:26;;;;;;;2.35;1.00;;;;;;;;;;5133617;27;20065;-62
2021/05/28 06:21:53;;;;;;;3.28;1.40;;;;;;;;;;5134476;27;20027;-62
2021/05/28 06:24:19;;;;;;;4.68;1.10;;;;;;;;;;5134613;27;20027;-61
2021/05/28 06:26:46;;;;;;;3.30;1.08;;;;;;;;;;5134722;27;20079;-62
2021/05/28 06:29:12;;;;;;;3.45;1.13;;;;;;;;;;5134870;27;20642;-62
2021/05/28 06:31:38;;;;;;;3.92;1.02;;;;;;;;;;5116076;27;20405;-61
2021/05/28 06:34:04;;;;;;;2.97;1.10;;;;;;;;;;5134177;27;20030;-62
2021/05/28 06:36:31;;;;;;;3.47;1.20;;;;;;;;;;5116124;27;20031;-62
2021/05/28 06:38:57;;;;;;;3.08;1.10;;;;;;;;;;5134484;27;20020;-61
2021/05/28 06:41:23;;;;;;;3.53;1.20;;;;;;;;;;5134479;27;20023;-62
2021/05/28 06:43:50;;;;;;;2.40;0.98;;;;;;;;;;5134389;27;20038;-62
2021/05/28 06:46:17;;;;;;;4.50;1.08;;;;;;;;;;5141676;27;20026;-62
2021/05/28 06:48:43;;;;;;;2.65;1.20;;;;;;;;;;5155175;27;20499;-62
2021/05/28 06:51:10;;;;;;;6.70;1.13;;;;;;;;;;5154715;27;20046;-61
2021/05/28 06:53:36;;;;;;;4.10;1.10;;;;;;;;;;5154903;27;20079;-62
2021/05/28 06:56:02;;;;;;;2.78;1.10;;;;;;;;;;5154625;27;20076;-61
2021/05/28 06:58:29;;;;;;;3.28;1.00;;;;;;;;;;5154813;27;20476;-62
2021/05/28 07:00:55;;;;;;;3.38;1.00;;;;;;;;;;5154694;27;20114;-62
2021/05/28 07:03:21;;;;;;;3.63;1.00;;;;;;;;;;5154718;27;20065;-62
2021/05/28 07:05:47;;;;;;;4.13;1.30;;;;;;;;;;5154812;27;20135;-62
2021/05/28 07:08:13;;;;;;;3.00;1.25;;;;;;;;;;5154547;27;20023;-63
2021/05/28 07:10:39;;;;;;;2.55;1.20;;;;;;;;;;5154583;27;20109;-62
2021/05/28 07:13:05;;;;;;;3.25;1.20;;;;;;;;;;5154032;27;20023;-62
2021/05/28 07:15:31;;;;;;;6.03;1.30;;;;;;;;;;5150038;27;20022;-62
2021/05/28 07:17:58;;;;;;;4.55;1.20;;;;;;;;;;5152142;27;20641;-62
2021/05/28 07:20:24;;;;;;;7.60;1.48;;;;;;;;;;5151714;27;20105;-61
2021/05/28 07:22:50;;;;;;;2.42;0.95;;;;;;;;;;5153029;27;20034;-61
2021/05/28 07:25:17;;;;;;;3.67;1.27;;;;;;;;;;5153197;27;20018;-61
2021/05/28 07:27:44;;;;;;;8.73;1.90;;;;;;;;;;5154114;27;20102;-56
2021/05/28 07:30:10;;;;;;;2.60;1.10;;;;;;;;;;5153181;27;20023;-56
2021/05/28 07:32:37;;;;;;;3.17;1.25;;;;;;;;;;5153070;27;20029;-56
2021/05/28 07:35:03;;;;;;;2.90;1.10;;;;;;;;;;5153047;27;20051;-58
2021/05/28 07:37:29;;;;;;;6.07;1.38;;;;;;;;;;5153202;27;20030;-59
2021/05/28 07:39:55;;;;;;;3.35;1.20;;;;;;;;;;5152764;27;20026;-61
2021/05/28 07:42:21;;;;;;;3.67;1.08;;;;;;;;;;5152782;27;20027;-60
2021/05/28 07:44:48;;;;;;;3.33;1.05;;;;;;;;;;5153090;27;20048;-60
2021/05/28 07:47:14;;;;;;;12.48;1.30;;;;;;;;;;5151825;27;20025;-59
2021/05/28 07:49:41;;;;;;;3.40;1.10;;;;;;;;;;5152798;27;20051;-61
2021/05/28 07:52:07;;;;;;;2.47;0.98;;;;;;;;;;5152483;27;20048;-60
2021/05/28 07:54:34;;;;;;;2.42;0.90;;;;;;;;;;5152344;27;20034;-62
2021/05/28 07:57:00;;;;;;;3.40;1.00;;;;;;;;;;5133436;27;20481;-58
2021/05/28 07:59:26;;;;;;;10.48;1.55;;;;;;;;;;5152621;27;20018;-62
2021/05/28 08:01:52;;;;;;;5.40;1.27;;;;;;;;;;5153981;27;20022;-61
2021/05/28 08:04:19;;;;;;;6.25;1.40;;;;;;;;;;5152927;27;20031;-63
2021/05/28 08:06:45;;;;;;;3.67;1.05;;;;;;;;;;5140201;27;20027;-61
2021/05/28 08:09:11;;;;;;;4.82;0.90;;;;;;;;;;5140704;27;20054;-58
2021/05/28 08:11:37;;;;;;;3.42;1.00;;;;;;;;;;5152090;27;20090;-60
2021/05/28 08:14:03;;;;;;;4.43;1.42;;;;;;;;;;5152202;27;20111;-60
2021/05/28 08:16:29;;;;;;;9.75;1.10;;;;;;;;;;5151966;27;20034;-60
2021/05/28 08:18:55;;;;;;;9.68;1.25;;;;;;;;;;5152283;27;20109;-59
2021/05/28 08:21:21;;;;;;;12.80;1.50;;;;;;;;;;5152484;27;20010;-61
2021/05/28 08:23:47;;;;;;;6.30;1.75;;;;;;;;;;5152272;27;20022;-61
2021/05/28 08:26:14;;;;;;;5.25;1.20;;;;;;;;;;5151900;27;20090;-62
2021/05/28 08:28:40;;;;;;;6.55;1.20;;;;;;;;;;5152140;27;20410;-59
2021/05/28 08:31:06;;;;;;;6.82;1.10;;;;;;;;;;5152145;27;20105;-59
2021/05/28 08:33:33;;;;;;;12.30;1.67;;;;;;;;;;5152102;27;20022;-62
2021/05/28 08:35:59;;;;;;;4.72;1.20;;;;;;;;;;5152787;27;20046;-60
2021/05/28 08:38:25;;;;;;;5.85;1.73;;;;;;;;;;5152896;27;20187;-60
2021/05/28 08:40:52;;;;;;;15.02;1.52;;;;;;;;;;5151839;27;20545;-61
2021/05/28 08:43:18;;;;;;;3.03;1.08;;;;;;;;;;5151421;27;20121;-61
2021/05/28 08:45:45;;;;;;;4.35;0.90;;;;;;;;;;5151610;27;20011;-59
2021/05/28 08:48:12;;;;;;;4.00;1.10;;;;;;;;;;5151440;27;20019;-59
2021/05/28 08:50:39;;;;;;;3.83;1.30;;;;;;;;;;5151333;27;20027;-61
2021/05/28 08:53:06;;;;;;;3.42;1.10;;;;;;;;;;5147516;27;20018;-61
2021/05/28 08:55:32;;;;;;;10.38;1.08;;;;;;;;;;5146209;27;20107;-60
2021/05/28 08:57:58;;;;;;;12.15;1.35;;;;;;;;;;5145919;27;20026;-60
2021/05/28 09:00:27;;;;;;;8.77;1.52;;;;;;;;;;5133477;27;20432;-61
2021/05/28 09:02:53;;;;;;;5.75;1.13;;;;;;;;;;5113682;27;20022;-60
2021/05/28 09:05:21;;;;;;;3.15;0.93;;;;;;;;;;5147056;27;20599;-60
2021/05/28 09:07:55;;;;;;;3.67;0.95;;;;;;;;;;5153008;27;20027;-61
2021/05/28 09:10:21;;;;;;;5.93;1.05;;;;;;;;;;5152946;27;20031;-60
2021/05/28 09:12:47;;;;;;;2.22;1.00;;;;;;;;;;5142121;27;20029;-61
2021/05/28 09:15:22;;;;;;;5.95;1.23;;;;;;;;;;5152713;27;20102;-60
2021/05/28 09:17:49;;;;;;;3.55;1.08;;;;;;;;;;5152387;27;20034;-60
2021/05/28 09:20:15;;;;;;;2.00;0.70;;;;;;;;;;5151169;27;20027;-59
2021/05/28 09:22:41;;;;;;;2.78;0.82;;;;;;;;;;5148651;27;20059;-59
2021/05/28 09:25:08;;;;;;;2.38;0.90;;;;;;;;;;5151472;27;20068;-60
2021/05/28 09:27:36;;;;;;;5.35;1.10;;;;;;;;;;5151291;27;20101;-58
2021/05/28 09:30:09;;;;;;;2.45;0.80;;;;;;;;;;5148607;27;20076;-60
2021/05/28 09:32:36;;;;;;;3.97;1.10;;;;;;;;;;5151273;27;20030;-59
2021/05/28 09:35:03;;;;;;;5.78;0.93;;;;;;;;;;5151619;27;20053;-60
2021/05/28 09:37:36;;;;;;;7.03;1.02;;;;;;;;;;5151101;27;20018;-60
2021/05/28 09:40:06;;;;;;;3.30;0.95;;;;;;;;;;5151711;27;20065;-62
2021/05/28 09:42:51;;;;;;;3.90;0.85;;;;;;;;;;5151601;27;20023;-60
2021/05/28 09:45:23;;;;;;;13.88;1.83;;;;;;;;;;5151692;27;20666;-62
2021/05/28 09:47:49;;;;;;;;;;;;;;;;;;5151719;27;20023;-61
2021/05/28 09:50:15;;;;;;;4.28;0.82;;;;;;;;;;5130898;28;19903;-61
2021/05/28 09:52:41;;;;;;;6.90;1.25;;;;;;;;;;5141558;27;20512;-65
2021/05/28 09:55:09;;;;;;;2.13;0.80;;;;;;;;;;5153527;27;20022;-63
2021/05/28 09:57:45;;;;;;;4.63;0.93;;;;;;;;;;5155468;27;20023;-60
2021/05/28 10:00:14;;;;;;;2.88;1.13;;;;;;;;;;5154835;27;20482;-62
2021/05/28 10:02:43;;;;;;;3.00;1.00;;;;;;;;;;5152599;27;20050;-63
2021/05/28 10:05:09;;;;;;;13.68;1.20;;;;;;;;;;5154523;27;20480;-60
2021/05/28 10:07:37;;;;;;;3.78;0.95;;;;;;;;;;5154891;27;20031;-60
2021/05/28 10:10:04;;;;;;;9.85;1.10;;;;;;;;;;5136504;27;20489;-61
2021/05/28 10:12:30;;;;;;;3.35;0.88;;;;;;;;;;5154371;27;20038;-61
2021/05/28 10:14:56;;;;;;;8.68;1.08;;;;;;;;;;5155253;27;20019;-61
2021/05/28 10:17:22;;;;;;;5.40;1.40;;;;;;;;;;5155860;27;20129;-61
2021/05/28 10:19:48;;;;;;;2.35;0.70;;;;;;;;;;5155699;27;20015;-62
2021/05/28 10:22:17;;;;;;;3.40;1.30;;;;;;;;;;5155655;27;20313;-61
2021/05/28 10:24:43;;;;;;;2.30;1.00;;;;;;;;;;5155846;27;20046;-61
2021/05/28 10:27:09;;;;;;;2.47;0.80;;;;;;;;;;5155549;27;20027;-61
2021/05/28 10:29:39;;;;;;;2.60;1.30;;;;;;;;;;5155510;27;20387;-61
2021/05/28 10:32:12;;;;;;;2.97;0.98;;;;;;;;;;5155751;27;20027;-64
2021/05/28 10:34:57;;;;;;;4.40;0.80;;;;;;;;;;5155358;27;20035;-64
2021/05/28 10:37:29;;;;;;;3.15;0.90;;;;;;;;;;5155515;27;20079;-64
2021/05/28 10:39:55;;;;;;;1.67;0.82;;;;;;;;;;5155231;27;20023;-63
2021/05/28 10:42:21;;;;;;;3.45;0.90;;;;;;;;;;5155067;27;20015;-64
2021/05/28 10:44:48;;;;;;;2.20;1.00;;;;;;;;;;5136628;27;20031;-64
2021/05/28 10:47:14;;;;;;;2.47;0.70;;;;;;;;;;5155483;27;20015;-61
2021/05/28 10:49:42;;;;;;;2.95;0.98;;;;;;;;;;5138733;27;20033;-61
2021/05/28 10:52:09;;;;;;;2.15;0.75;;;;;;;;;;5134292;27;20339;-61
2021/05/28 10:54:36;;;;;;;1.95;0.70;;;;;;;;;;5115772;27;20532;-61
2021/05/28 10:57:21;;;;;;;1.60;0.80;;;;;;;;;;5134372;27;20031;-64
2021/05/28 10:59:48;;;;;;;3.13;0.70;;;;;;;;;;5134145;27;20015;-63
2021/05/28 11:02:16;;;;;;;1.92;0.77;;;;;;;;;;5134382;27;20031;-63
2021/05/28 11:04:42;;;;;;;4.93;0.95;;;;;;;;;;5138194;27;20018;-64
2021/05/28 11:07:11;;;;;;;5.50;0.77;;;;;;;;;;5153731;27;20469;-62
2021/05/28 11:09:40;;;;;;;2.40;0.82;;;;;;;;;;5153656;27;20022;-61
2021/05/28 11:12:10;;;;;;;7.35;1.00;;;;;;;;;;5153806;27;20557;-58
2021/05/28 11:14:37;;;;;;;3.10;1.10;;;;;;;;;;5153888;27;20507;-60
2021/05/28 11:17:03;;;;;;;3.13;0.80;;;;;;;;;;5135363;27;20039;-60
2021/05/28 11:19:30;;;;;;;3.35;1.02;;;;;;;;;;5153810;27;20026;-59
2021/05/28 11:21:58;;;;;;;2.10;0.80;;;;;;;;;;5153572;27;20105;-59
2021/05/28 11:24:42;;;;;;;2.38;0.90;;;;;;;;;;5153154;27;20026;-61
2021/05/28 11:27:35;;;;;;;3.75;0.98;;;;;;;;;;5154039;27;20023;-57
2021/05/28 11:30:04;;;;;;;2.05;0.80;;;;;;;;;;5149464;27;20033;-59
2021/05/28 11:32:36;;;;;;;6.72;1.23;;;;;;;;;;5154318;27;20034;-62
2021/05/28 11:35:22;;;;;;;4.95;0.70;;;;;;;;;;5151686;27;20051;-61
2021/05/28 11:38:01;;;;;;;3.10;0.70;;;;;;;;;;5135777;27;20047;-62
2021/05/28 11:40:30;;;;;;;2.38;0.80;;;;;;;;;;5132537;27;20019;-66
2021/05/28 11:43:03;;;;;;;3.42;0.98;;;;;;;;;;5135313;27;20010;-62
2021/05/28 11:45:29;;;;;;;2.17;0.75;;;;;;;;;;5147335;27;20372;-63
2021/05/28 11:47:55;;;;;;;1.40;0.63;;;;;;;;;;5151384;27;20370;-63
2021/05/28 11:50:21;;;;;;;2.03;0.80;;;;;;;;;;5149807;27;20019;-63
2021/05/28 11:52:58;;;;;;;2.83;0.70;;;;;;;;;;5152730;27;20018;-64
2021/05/28 11:55:24;;;;;;;2.28;0.60;;;;;;;;;;5144966;27;20117;-62
2021/05/28 11:58:00;;;;;;;4.93;0.80;;;;;;;;;;5139383;27;20019;-63
2021/05/28 12:00:27;;;;;;;3.95;0.85;;;;;;;;;;5133870;27;20038;-63
2021/05/28 12:02:56;;;;;;;2.17;0.82;;;;;;;;;;5133205;27;20424;-63
2021/05/28 12:05:23;;;;;;;4.57;0.95;;;;;;;;;;5133137;27;20016;-64
2021/05/28 12:07:50;;;;;;;2.33;0.73;;;;;;;;;;5132923;27;20440;-63
2021/05/28 12:10:16;;;;;;;2.22;0.80;;;;;;;;;;5114422;27;20481;-62
2021/05/28 12:12:54;;;;;;;1.48;0.70;;;;;;;;;;5133037;27;20023;-61
2021/05/28 12:15:22;;;;;;;3.85;0.93;;;;;;;;;;5132917;27;20088;-63
2021/05/28 12:17:48;;;;;;;1.10;0.57;;;;;;;;;;5132188;27;20050;-64
2021/05/28 12:20:14;;;;;;;3.63;0.80;;;;;;;;;;5132812;27;20016;-63
2021/05/28 12:22:59;;;;;;;1.55;0.68;;;;;;;;;;5132720;27;20037;-63
2021/05/28 12:25:25;;;;;;;3.30;0.50;;;;;;;;;;5132771;27;20355;-64
2021/05/28 12:27:51;;;;;;;1.83;0.73;;;;;;;;;;5137158;27;20015;-62
2021/05/28 12:30:24;;;;;;;0.98;0.57;;;;;;;;;;5146186;27;20060;-61
2021/05/28 12:32:50;;;;;;;1.08;0.65;;;;;;;;;;5140958;27;20094;-61
2021/05/28 12:35:16;;;;;;;0.80;0.50;;;;;;;;;;5141341;27;20447;-60
2021/05/28 12:38:02;;;;;;;2.38;0.77;;;;;;;;;;5142391;27;20054;-62
2021/05/28 12:40:28;;;;;;;3.15;0.73;;;;;;;;;;5142598;27;20019;-63
2021/05/28 12:42:55;;;;;;;1.67;0.68;;;;;;;;;;5141511;27;20478;-61
2021/05/28 12:45:21;;;;;;;1.60;0.60;;;;;;;;;;5140733;27;20035;-61
2021/05/28 12:47:47;;;;;;;1.60;0.60;;;;;;;;;;5123937;27;20027;-61
2021/05/28 12:50:33;;;;;;;1.13;0.57;;;;;;;;;;5141245;27;20102;-62
2021/05/28 12:53:19;;;;;;;2.10;0.70;;;;;;;;;;5151455;27;20014;-63
2021/05/28 12:55:50;;;;;;;1.80;0.55;;;;;;;;;;5152993;27;20031;-63
2021/05/28 12:58:20;;;;;;;1.75;0.80;;;;;;;;;;5152817;27;20071;-63
2021/05/28 13:00:52;;;;;;;1.23;0.60;;;;;;;;;;5152930;27;20054;-63
2021/05/28 13:03:31;;;;;;;1.13;0.52;;;;;;;;;;5134251;27;20109;-63
2021/05/28 13:05:57;;;;;;;3.95;0.60;;;;;;;;;;5153022;27;20068;-63
2021/05/28 13:08:32;;;;;;;1.20;0.50;;;;;;;;;;5152477;27;20019;-64
2021/05/28 13:10:59;;;;;;;1.55;0.63;;;;;;;;;;5152873;27;20027;-62
2021/05/28 13:13:25;;;;;;;1.50;0.57;;;;;;;;;;5152867;27;20098;-63
2021/05/28 13:15:52;;;;;;;1.48;0.60;;;;;;;;;;5152637;27;20074;-63
2021/05/28 13:18:18;;;;;;;3.17;0.80;;;;;;;;;;5152774;27;20042;-63
2021/05/28 13:20:45;;;;;;;8.63;1.30;;;;;;;;;;5152733;27;20029;-62
2021/05/28 13:23:37;;;;;;;6.30;1.23;;;;;;;;;;5152632;27;20022;-58
2021/05/28 13:26:09;;;;;;;8.70;1.98;;;;;;;;;;5147924;27;20035;-61
2021/05/28 13:28:36;;;;;;;13.70;1.92;;;;;;;;;;5154301;27;20106;-61
2021/05/28 13:31:09;;;;;;;12.73;1.60;;;;;;;;;;5155309;27;20025;-61
2021/05/28 13:33:39;;;;;;;11.20;2.13;;;;;;;;;;5151172;27;20106;-61
2021/05/28 13:36:11;;;;;;;8.68;1.92;;;;;;;;;;5142179;27;20043;-62
2021/05/28 13:38:44;;;;;;;8.13;1.63;;;;;;;;;;5135511;27;20478;-59
2021/05/28 13:41:13;;;;;;;9.93;1.70;;;;;;;;;;5135180;27;20110;-59
2021/05/28 13:43:41;;;;;;;7.75;1.77;;;;;;;;;;5116200;27;20079;-60
2021/05/28 13:46:07;;;;;;;11.27;1.63;;;;;;;;;;5135461;27;20023;-59
2021/05/28 13:48:33;;;;;;;8.02;1.80;;;;;;;;;;5135647;27;20019;-59
2021/05/28 13:51:00;;;;;;;7.50;1.45;;;;;;;;;;5138295;27;20019;-60
2021/05/28 13:53:27;;;;;;;5.70;1.10;;;;;;;;;;5156139;27;20023;-59
2021/05/28 13:55:53;;;;;;;6.68;1.10;;;;;;;;;;5156262;27;20113;-59
2021/05/28 13:58:23;;;;;;;6.03;1.33;;;;;;;;;;5156002;27;20058;-60
2021/05/28 14:00:49;;;;;;;6.93;0.90;;;;;;;;;;5156087;27;20034;-60
2021/05/28 14:03:16;;;;;;;9.73;1.45;;;;;;;;;;5155764;27;20018;-60
2021/05/28 14:05:42;;;;;;;4.70;1.33;;;;;;;;;;5137360;27;20781;-59
2021/05/28 14:08:09;;;;;;;5.60;1.23;;;;;;;;;;5156080;27;20019;-59
2021/05/28 14:10:35;;;;;;;3.50;1.10;;;;;;;;;;5137247;27;20027;-59
2021/05/28 14:13:01;;;;;;;4.43;1.17;;;;;;;;;;5137180;27;20025;-60
2021/05/28 14:15:28;;;;;;;6.00;1.40;;;;;;;;;;5155433;27;20027;-60
2021/05/28 14:17:54;;;;;;;4.65;1.05;;;;;;;;;;5155984;27;20042;-60
2021/05/28 14:20:22;;;;;;;2.90;1.00;;;;;;;;;;5155957;27;20019;-60
2021/05/28 14:22:49;;;;;;;4.75;1.13;;;;;;;;;;5156222;27;20026;-60
2021/05/28 14:25:15;;;;;;;6.45;1.35;;;;;;;;;;5155597;27;20014;-61
2021/05/28 14:27:42;;;;;;;6.15;1.13;;;;;;;;;;5150762;27;20018;-60
2021/05/28 14:30:10;;;;;;;8.73;1.02;;;;;;;;;;5134743;27;20096;-60
2021/05/28 14:32:36;;;;;;;2.03;0.70;;;;;;;;;;5134855;27;20007;-60
2021/05/28 14:35:02;;;;;;;3.20;1.00;;;;;;;;;;5134510;27;20126;-60
2021/05/28 14:37:28;;;;;;;5.25;1.08;;;;;;;;;;5134791;27;20059;-60
2021/05/28 14:39:54;;;;;;;2.15;0.80;;;;;;;;;;5134072;27;20016;-62
2021/05/28 14:42:20;;;;;;;2.80;0.90;;;;;;;;;;5134605;27;20023;-63
2021/05/28 14:44:47;;;;;;;5.13;0.90;;;;;;;;;;5134614;27;20063;-63
2021/05/28 14:47:13;;;;;;;2.78;0.80;;;;;;;;;;5134673;27;20055;-63
2021/05/28 14:49:39;;;;;;;2.60;0.73;;;;;;;;;;5134725;27;20023;-63